createdAt,value
2022-11-27T00:01:10.857Z,36.67
2022-11-27T00:03:40.317Z,39.28
2022-11-27T00:06:09.830Z,45.65
2022-11-27T00:08:37.664Z,37.35
2022-11-27T00:11:07.959Z,35.03
2022-11-27T00:13:36.246Z,30.08
2022-11-27T00:16:04.980Z,28.55
2022-11-27T00:18:32.989Z,30.70
2022-11-27T00:21:05.846Z,32.55
2022-11-27T00:23:35.026Z,23.95
2022-11-27T00:26:03.449Z,32.95
2022-11-27T00:28:31.780Z,34.75
2022-11-27T00:31:00.659Z,28.25
2022-11-27T00:33:29.025Z,24.98
2022-11-27T00:35:56.965Z,31.95
2022-11-27T00:38:26.271Z,25.67
2022-11-27T00:40:54.091Z,31.45
2022-11-27T00:43:21.951Z,37.25
2022-11-27T00:45:50.596Z,32.38
2022-11-27T00:48:18.554Z,28.67
2022-11-27T00:50:46.374Z,35.13
2022-11-27T00:53:14.212Z,27.50
2022-11-27T00:55:43.517Z,28.10
2022-11-27T00:58:11.615Z,21.98
2022-11-27T01:00:39.453Z,32.42
2022-11-27T01:03:07.589Z,32.25
2022-11-27T01:05:38.127Z,23.92
2022-11-27T01:08:06.103Z,33.90
2022-11-27T01:10:33.919Z,28.85
2022-11-27T01:13:03.126Z,25.55
2022-11-27T01:15:31.011Z,25.40
2022-11-27T01:17:58.832Z,28.40
2022-11-27T01:20:26.668Z,25.73
2022-11-27T01:22:54.559Z,29.55
2022-11-27T01:25:26.766Z,27.17
2022-11-27T01:27:55.011Z,22.80
2022-11-27T01:30:24.214Z,37.80
2022-11-27T01:32:52.158Z,24.63
2022-11-27T01:35:20.028Z,24.33
2022-11-27T01:37:47.890Z,30.17
2022-11-27T01:40:15.843Z,21.48
2022-11-27T01:42:43.714Z,27.02
2022-11-27T01:45:16.106Z,25.92
2022-11-27T01:47:49.196Z,29.07
2022-11-27T01:50:21.921Z,28.10
2022-11-27T01:52:53.250Z,28.75
2022-11-27T01:55:28.173Z,25.38
2022-11-27T01:58:00.015Z,22.15
2022-11-27T02:00:28.673Z,29.05
2022-11-27T02:02:57.963Z,26.08
2022-11-27T02:05:28.559Z,27.83
2022-11-27T02:07:58.791Z,28.50
2022-11-27T02:10:36.473Z,23.65
2022-11-27T02:13:11.248Z,24.40
2022-11-27T02:15:45.431Z,30.70
2022-11-27T02:18:23.664Z,25.35
2022-11-27T02:20:58.713Z,25.40
2022-11-27T02:24:05.802Z,20.10
2022-11-27T02:27:02.074Z,27.13
2022-11-27T02:29:34.437Z,27.45
2022-11-27T02:32:10.897Z,31.35
2022-11-27T02:34:47.164Z,20.00
2022-11-27T02:37:22.250Z,35.17
2022-11-27T02:39:56.616Z,24.02
2022-11-27T02:42:26.745Z,29.48
2022-11-27T02:45:01.370Z,27.77
2022-11-27T02:47:30.531Z,23.20
2022-11-27T02:50:00.156Z,25.08
2022-11-27T02:52:29.671Z,22.05
2022-11-27T02:55:01.621Z,19.67
2022-11-27T02:57:31.059Z,24.00
2022-11-27T03:00:01.821Z,23.70
2022-11-27T03:02:33.356Z,23.95
2022-11-27T03:05:06.111Z,25.35
2022-11-27T03:07:40.964Z,26.88
2022-11-27T03:10:14.075Z,25.30
2022-11-27T03:12:41.947Z,23.52
2022-11-27T03:15:11.904Z,27.73
2022-11-27T03:17:53.074Z,21.45
2022-11-27T03:20:24.731Z,22.27
2022-11-27T03:22:54.496Z,29.05
2022-11-27T03:25:22.713Z,22.45
2022-11-27T03:27:56.413Z,19.40
2022-11-27T03:30:26.003Z,24.27
2022-11-27T03:32:54.203Z,24.77
2022-11-27T03:35:27.994Z,24.58
2022-11-27T03:37:56.704Z,23.23
2022-11-27T03:40:30.369Z,21.17
2022-11-27T03:43:04.749Z,25.33
2022-11-27T03:45:41.072Z,19.52
2022-11-27T03:48:23.017Z,22.00
2022-11-27T03:51:02.516Z,21.98
2022-11-27T03:53:39.234Z,24.88
2022-11-27T03:56:11.648Z,22.40
2022-11-27T03:58:45.574Z,16.60
2022-11-27T04:01:19.684Z,24.70
2022-11-27T04:03:47.743Z,24.52
2022-11-27T04:06:15.668Z,28.35
2022-11-27T04:08:43.897Z,21.88
2022-11-27T04:11:11.745Z,23.95
2022-11-27T04:13:39.618Z,31.48
2022-11-27T04:16:08.598Z,26.95
2022-11-27T04:18:37.919Z,25.40
2022-11-27T04:21:06.136Z,25.45
2022-11-27T04:23:33.965Z,30.05
2022-11-27T04:26:01.800Z,27.25
2022-11-27T04:28:29.620Z,22.88
2022-11-27T04:30:57.587Z,24.40
2022-11-27T04:33:25.859Z,26.88
2022-11-27T04:35:55.344Z,22.13
2022-11-27T04:38:23.462Z,21.35
2022-11-27T04:40:52.947Z,23.85
2022-11-27T04:43:20.888Z,18.65
2022-11-27T04:45:48.777Z,22.98
2022-11-27T04:48:16.617Z,22.55
2022-11-27T04:50:44.452Z,25.08
2022-11-27T04:53:13.848Z,27.98
2022-11-27T04:55:41.676Z,22.52
2022-11-27T04:58:09.519Z,22.30
2022-11-27T05:00:37.444Z,22.20
2022-11-27T05:03:05.347Z,29.27
2022-11-27T05:05:33.198Z,24.60
2022-11-27T05:08:01.074Z,28.13
2022-11-27T05:10:30.274Z,27.45
2022-11-27T05:12:58.110Z,22.50
2022-11-27T05:15:25.933Z,28.10
2022-11-27T05:17:53.715Z,24.33
2022-11-27T05:20:21.540Z,21.73
2022-11-27T05:22:49.824Z,24.48
2022-11-27T05:25:17.811Z,32.35
2022-11-27T05:27:46.995Z,32.88
2022-11-27T05:30:14.917Z,29.83
2022-11-27T05:32:42.727Z,24.60
2022-11-27T05:35:10.828Z,28.58
2022-11-27T05:37:38.637Z,27.48
2022-11-27T05:40:07.932Z,24.95
2022-11-27T05:42:35.750Z,29.98
2022-11-27T05:45:05.633Z,31.55
2022-11-27T05:47:33.425Z,25.40
2022-11-27T05:50:01.324Z,27.08
2022-11-27T05:52:29.138Z,31.30
2022-11-27T05:54:56.966Z,34.15
2022-11-27T05:57:24.801Z,26.10
2022-11-27T05:59:52.718Z,27.00
2022-11-27T06:02:27.841Z,26.83
2022-11-27T06:04:56.943Z,24.33
2022-11-27T06:07:24.848Z,25.70
2022-11-27T06:09:52.839Z,24.33
2022-11-27T06:12:20.674Z,23.98
2022-11-27T06:14:48.496Z,23.77
2022-11-27T06:17:16.689Z,21.90
2022-11-27T06:19:45.910Z,28.13
2022-11-27T06:22:13.749Z,25.38
2022-11-27T06:24:41.680Z,22.10
2022-11-27T06:27:09.767Z,25.20
2022-11-27T06:29:37.865Z,27.42
2022-11-27T06:32:07.412Z,31.25
2022-11-27T06:34:35.389Z,24.13
2022-11-27T06:37:07.017Z,32.03
2022-11-27T06:39:36.980Z,26.00
2022-11-27T06:42:05.099Z,26.90
2022-11-27T06:44:32.902Z,23.85
2022-11-27T06:47:00.864Z,22.17
2022-11-27T06:49:28.739Z,29.90
2022-11-27T06:51:56.552Z,30.73
2022-11-27T06:54:25.989Z,29.50
2022-11-27T06:56:53.828Z,23.60
2022-11-27T06:59:21.709Z,22.38
2022-11-27T07:01:49.605Z,23.05
2022-11-27T07:04:17.945Z,27.92
2022-11-27T07:06:45.839Z,27.98
2022-11-27T07:09:13.985Z,23.67
2022-11-27T07:11:43.527Z,26.92
2022-11-27T07:14:11.691Z,27.95
2022-11-27T07:16:39.601Z,25.08
2022-11-27T07:19:08.872Z,26.80
2022-11-27T07:21:38.349Z,27.30
2022-11-27T07:24:06.772Z,30.02
2022-11-27T07:26:34.793Z,24.13
2022-11-27T07:29:04.511Z,27.48
2022-11-27T07:31:32.502Z,31.40
2022-11-27T07:34:00.537Z,27.27
2022-11-27T07:36:29.992Z,24.77
2022-11-27T07:38:59.031Z,27.80
2022-11-27T07:41:32.114Z,33.55
2022-11-27T07:44:00.249Z,20.65
2022-11-27T07:46:30.207Z,27.75
2022-11-27T07:48:58.124Z,21.85
2022-11-27T07:51:25.955Z,22.02
2022-11-27T07:53:53.805Z,27.52
2022-11-27T07:56:22.019Z,25.65
2022-11-27T07:58:50.259Z,23.60
2022-11-27T08:01:20.025Z,27.95
2022-11-27T08:03:49.392Z,27.38
2022-11-27T08:06:19.192Z,19.92
2022-11-27T08:08:47.380Z,24.30
2022-11-27T08:11:20.908Z,27.98
2022-11-27T08:13:48.880Z,21.77
2022-11-27T08:16:16.802Z,24.95
2022-11-27T08:18:44.644Z,19.90
2022-11-27T08:21:13.927Z,27.27
2022-11-27T08:23:41.834Z,25.08
2022-11-27T08:26:10.837Z,22.45
2022-11-27T08:28:39.572Z,23.42
2022-11-27T08:31:10.481Z,28.83
2022-11-27T08:33:38.807Z,23.10
2022-11-27T08:36:10.602Z,29.70
2022-11-27T08:38:41.844Z,23.17
2022-11-27T08:41:10.934Z,24.02
2022-11-27T08:43:38.795Z,22.45
2022-11-27T08:46:08.007Z,24.35
2022-11-27T08:48:36.387Z,27.52
2022-11-27T08:51:08.362Z,24.52
2022-11-27T08:53:37.655Z,23.90
2022-11-27T08:56:15.109Z,24.15
2022-11-27T08:58:43.064Z,26.27
2022-11-27T09:01:13.585Z,25.33
2022-11-27T09:03:41.565Z,21.92
2022-11-27T09:06:10.950Z,20.30
2022-11-27T09:08:39.875Z,25.95
2022-11-27T09:11:08.595Z,20.55
2022-11-27T09:13:40.329Z,25.95
2022-11-27T09:16:11.429Z,22.48
2022-11-27T09:18:39.649Z,19.40
2022-11-27T09:21:09.310Z,22.52
2022-11-27T09:23:38.522Z,24.25
2022-11-27T09:26:10.035Z,27.25
2022-11-27T09:28:40.417Z,20.05
2022-11-27T09:31:10.659Z,21.65
2022-11-27T09:33:40.629Z,21.65
2022-11-27T09:36:10.668Z,23.55
2022-11-27T09:38:39.047Z,17.88
2022-11-27T09:41:27.752Z,21.77
2022-11-27T09:44:01.404Z,18.05
2022-11-27T09:46:33.646Z,23.67
2022-11-27T09:49:06.517Z,19.00
2022-11-27T09:51:38.546Z,16.25
2022-11-27T09:54:12.891Z,15.60
2022-11-27T09:56:42.357Z,19.60
2022-11-27T09:59:17.583Z,17.85
2022-11-27T10:01:50.551Z,15.80
2022-11-27T10:04:21.917Z,15.10
2022-11-27T10:07:16.252Z,18.98
2022-11-27T10:09:57.040Z,22.55
2022-11-27T10:12:35.422Z,18.50
2022-11-27T10:15:11.666Z,24.13
2022-11-27T10:17:44.840Z,19.45
2022-11-27T10:20:23.446Z,24.42
2022-11-27T10:22:58.712Z,20.85
2022-11-27T10:25:30.864Z,16.13
2022-11-27T10:28:07.272Z,19.85
2022-11-27T10:30:46.358Z,16.83
2022-11-27T10:33:19.615Z,21.00
2022-11-27T10:35:50.076Z,15.15
2022-11-27T10:38:21.124Z,22.10
2022-11-27T10:41:09.781Z,16.58
2022-11-27T10:43:40.050Z,17.33
2022-11-27T10:46:16.385Z,20.52
2022-11-27T10:48:44.243Z,23.58
2022-11-27T10:51:16.662Z,20.88
2022-11-27T10:53:47.215Z,17.75
2022-11-27T10:56:37.744Z,15.85
2022-11-27T10:59:10.156Z,16.35
2022-11-27T11:01:47.597Z,20.90
2022-11-27T11:04:38.697Z,16.88
2022-11-27T11:07:25.403Z,13.68
2022-11-27T11:09:53.918Z,17.67
2022-11-27T11:12:23.880Z,21.23
2022-11-27T11:14:53.148Z,14.63
2022-11-27T11:17:26.485Z,15.45
2022-11-27T11:22:23.080Z,13.30
2022-11-27T11:24:53.287Z,14.10
2022-11-27T11:27:24.465Z,18.95
2022-11-27T11:29:55.657Z,16.05
2022-11-27T11:32:29.244Z,18.10
2022-11-27T11:35:01.413Z,17.08
2022-11-27T11:37:32.237Z,12.80
2022-11-27T11:40:01.995Z,14.13
2022-11-27T11:42:32.359Z,15.27
2022-11-27T11:45:06.616Z,14.95
2022-11-27T11:47:36.876Z,13.65
2022-11-27T11:50:05.215Z,17.35
2022-11-27T11:52:45.080Z,14.82
2022-11-27T11:55:20.021Z,14.88
2022-11-27T11:58:18.951Z,17.58
2022-11-27T12:03:52.347Z,17.10
2022-11-27T12:06:39.008Z,18.08
2022-11-27T12:09:22.624Z,15.38
2022-11-27T12:14:28.426Z,16.90
2022-11-27T12:17:10.305Z,15.75
2022-11-27T12:19:59.751Z,16.80
2022-11-27T12:22:54.079Z,15.38
2022-11-27T12:25:30.050Z,18.35
2022-11-27T12:28:12.695Z,14.98
2022-11-27T12:30:51.776Z,17.30
2022-11-27T12:33:33.468Z,20.33
2022-11-27T12:36:12.338Z,18.05
2022-11-27T12:38:56.896Z,16.08
2022-11-27T12:42:00.542Z,14.82
2022-11-27T12:44:36.357Z,18.52
2022-11-27T12:47:10.980Z,16.48
2022-11-27T12:49:43.802Z,17.27
2022-11-27T12:52:18.300Z,16.73
2022-11-27T12:54:51.896Z,20.98
2022-11-27T12:57:24.219Z,22.83
2022-11-27T12:59:58.430Z,15.25
2022-11-27T13:02:32.655Z,22.77
2022-11-27T13:05:04.006Z,20.55
2022-11-27T13:07:42.314Z,16.83
2022-11-27T13:10:20.396Z,18.75
2022-11-27T13:12:53.711Z,73.85
2022-11-27T13:17:58.712Z,64.28
2022-11-27T13:20:34.744Z,23.27
2022-11-27T13:23:03.948Z,21.90
2022-11-27T13:25:35.554Z,21.00
2022-11-27T13:28:05.293Z,18.80
2022-11-27T13:30:38.081Z,14.90
2022-11-27T13:33:07.163Z,18.75
2022-11-27T13:35:42.002Z,13.82
2022-11-27T13:38:13.950Z,17.65
2022-11-27T13:40:44.735Z,17.27
2022-11-27T13:43:23.834Z,14.93
2022-11-27T13:45:52.693Z,18.83
2022-11-27T13:48:30.366Z,15.48
2022-11-27T13:51:00.295Z,14.55
2022-11-27T13:53:35.558Z,19.17
2022-11-27T13:56:04.158Z,13.90
2022-11-27T13:58:33.783Z,13.00
2022-11-27T14:01:14.287Z,15.43
2022-11-27T14:03:42.279Z,18.83
2022-11-27T14:06:24.826Z,20.55
2022-11-27T14:08:58.463Z,16.45
2022-11-27T14:11:38.173Z,24.35
2022-11-27T14:14:19.275Z,15.07
2022-11-27T14:16:58.589Z,20.25
2022-11-27T14:19:33.873Z,15.55
2022-11-27T14:22:02.406Z,21.30
2022-11-27T14:24:43.891Z,16.23
2022-11-27T14:27:22.301Z,15.35
2022-11-27T14:29:51.104Z,15.50
2022-11-27T14:32:21.107Z,15.00
2022-11-27T14:34:50.623Z,16.70
2022-11-27T14:37:23.799Z,13.43
2022-11-27T14:39:53.403Z,17.15
2022-11-27T14:42:28.164Z,15.82
2022-11-27T14:45:05.343Z,14.50
2022-11-27T14:47:33.667Z,19.33
2022-11-27T14:50:03.504Z,12.95
2022-11-27T14:52:32.087Z,12.23
2022-11-27T14:55:03.422Z,12.23
2022-11-27T14:57:31.965Z,15.55
2022-11-27T15:00:17.076Z,20.10
2022-11-27T15:02:45.533Z,14.93
2022-11-27T15:05:22.172Z,17.95
2022-11-27T15:07:53.133Z,16.83
2022-11-27T15:10:36.610Z,13.98
2022-11-27T15:13:06.107Z,15.32
2022-11-27T15:15:40.452Z,18.80
2022-11-27T15:18:09.802Z,12.68
2022-11-27T15:20:40.817Z,15.13
2022-11-27T15:23:18.309Z,12.23
2022-11-27T15:25:49.832Z,12.38
2022-11-27T15:28:35.448Z,12.32
2022-11-27T15:31:05.375Z,18.95
2022-11-27T15:33:34.645Z,22.25
2022-11-27T15:36:17.585Z,13.95
2022-11-27T15:38:46.465Z,15.70
2022-11-27T15:41:24.052Z,17.15
2022-11-27T15:43:52.322Z,15.10
2022-11-27T15:46:26.093Z,11.95
2022-11-27T15:48:54.334Z,17.33
2022-11-27T15:51:22.164Z,15.82
2022-11-27T15:53:50.043Z,21.13
2022-11-27T15:56:18.517Z,16.65
2022-11-27T15:58:47.683Z,15.40
2022-11-27T16:01:15.623Z,16.92
2022-11-27T16:03:43.558Z,15.20
2022-11-27T16:06:11.711Z,14.85
2022-11-27T16:08:39.611Z,21.67
2022-11-27T16:11:13.484Z,18.35
2022-11-27T16:13:41.527Z,21.10
2022-11-27T16:16:12.295Z,20.30
2022-11-27T16:18:40.153Z,18.90
2022-11-27T16:21:10.143Z,21.88
2022-11-27T16:23:38.837Z,21.27
2022-11-27T16:26:07.226Z,18.20
2022-11-27T16:28:35.740Z,15.75
2022-11-27T16:31:09.206Z,20.20
2022-11-27T16:33:38.973Z,22.38
2022-11-27T16:36:08.918Z,23.42
2022-11-27T16:38:37.801Z,22.92
2022-11-27T16:41:08.342Z,17.40
2022-11-27T16:43:40.042Z,19.75
2022-11-27T16:46:11.424Z,19.60
2022-11-27T16:48:42.242Z,17.33
2022-11-27T16:51:14.160Z,12.13
2022-11-27T16:53:43.735Z,29.63
2022-11-27T16:56:13.473Z,14.27
2022-11-27T16:58:43.960Z,17.20
2022-11-27T17:01:14.232Z,18.02
2022-11-27T17:03:43.902Z,21.23
2022-11-27T17:06:13.243Z,17.58
2022-11-27T17:08:41.713Z,19.25
2022-11-27T17:11:10.311Z,17.58
2022-11-27T17:13:38.131Z,22.42
2022-11-27T17:16:08.597Z,19.23
2022-11-27T17:18:37.941Z,21.58
2022-11-27T17:21:10.136Z,15.85
2022-11-27T17:23:38.915Z,18.23
2022-11-27T17:26:10.608Z,18.83
2022-11-27T17:28:39.420Z,22.90
2022-11-27T17:31:11.363Z,18.08
2022-11-27T17:33:39.366Z,21.83
2022-11-27T17:36:09.346Z,23.63
2022-11-27T17:38:37.372Z,16.73
2022-11-27T17:41:07.521Z,19.45
2022-11-27T17:43:35.951Z,22.10
2022-11-27T17:46:09.033Z,23.35
2022-11-27T17:48:37.270Z,13.55
2022-11-27T17:51:06.552Z,21.05
2022-11-27T17:53:36.165Z,20.73
2022-11-27T17:56:05.232Z,22.60
2022-11-27T17:58:34.033Z,24.35
2022-11-27T18:01:03.487Z,15.77
2022-11-27T18:03:33.501Z,17.83
2022-11-27T18:06:04.635Z,23.25
2022-11-27T18:08:33.009Z,18.30
2022-11-27T18:11:08.478Z,20.88
2022-11-27T18:13:36.777Z,20.02
2022-11-27T18:16:07.065Z,17.17
2022-11-27T18:18:35.030Z,18.05
2022-11-27T18:21:08.606Z,19.35
2022-11-27T18:23:49.652Z,22.35
2022-11-27T18:26:45.576Z,17.48
2022-11-27T18:29:16.097Z,21.63
2022-11-27T18:31:44.107Z,22.35
2022-11-27T18:34:11.971Z,23.42
2022-11-27T18:36:39.795Z,24.00
2022-11-27T18:39:07.713Z,27.10
2022-11-27T18:41:37.476Z,19.95
2022-11-27T18:44:05.605Z,25.02
2022-11-27T18:46:33.652Z,20.48
2022-11-27T18:49:01.593Z,19.75
2022-11-27T18:51:29.587Z,19.40
2022-11-27T18:53:59.021Z,21.45
2022-11-27T18:56:29.391Z,17.52
2022-11-27T18:59:04.004Z,14.90
2022-11-27T19:01:40.837Z,18.00
2022-11-27T19:04:10.322Z,22.67
2022-11-27T19:06:39.228Z,16.58
2022-11-27T19:09:07.695Z,17.00
2022-11-27T19:11:36.179Z,21.23
2022-11-27T19:14:06.829Z,17.17
2022-11-27T19:16:36.712Z,19.52
2022-11-27T19:19:06.000Z,17.77
2022-11-27T19:21:36.472Z,19.00
2022-11-27T19:24:05.766Z,20.98
2022-11-27T19:26:35.739Z,16.95
2022-11-27T19:29:08.115Z,17.90
2022-11-27T19:31:37.992Z,15.30
2022-11-27T19:34:07.412Z,21.45
2022-11-27T19:36:36.564Z,22.48
2022-11-27T19:39:07.227Z,15.20
2022-11-27T19:41:35.904Z,21.70
2022-11-27T19:44:06.625Z,24.60
2022-11-27T19:46:36.298Z,25.00
2022-11-27T19:49:06.468Z,23.38
2022-11-27T19:51:36.122Z,17.35
2022-11-27T19:54:09.904Z,19.27
2022-11-27T19:56:40.186Z,19.40
2022-11-27T19:59:10.474Z,20.92
2022-11-27T20:01:41.326Z,16.77
2022-11-27T20:04:11.023Z,23.60
2022-11-27T20:06:41.034Z,22.33
2022-11-27T20:09:09.859Z,18.10
2022-11-27T20:11:38.097Z,21.30
2022-11-27T20:14:08.958Z,18.77
2022-11-27T20:16:37.668Z,13.73
2022-11-27T20:19:06.999Z,18.75
2022-11-27T20:21:36.559Z,21.65
2022-11-27T20:24:04.872Z,23.40
2022-11-27T20:26:39.681Z,18.27
2022-11-27T20:29:12.031Z,18.90
2022-11-27T20:31:42.072Z,16.77
2022-11-27T20:34:15.921Z,17.45
2022-11-27T20:39:16.311Z,20.23
2022-11-27T20:41:47.537Z,18.33
2022-11-27T20:44:18.281Z,21.65
2022-11-27T20:46:46.864Z,20.63
2022-11-27T20:49:14.904Z,20.77
2022-11-27T20:51:43.005Z,19.33
2022-11-27T20:54:12.087Z,16.88
2022-11-27T20:56:40.875Z,22.50
2022-11-27T20:59:08.995Z,19.23
2022-11-27T21:01:38.706Z,19.80
2022-11-27T21:04:10.126Z,20.17
2022-11-27T21:06:43.818Z,20.15
2022-11-27T21:09:13.901Z,20.65
2022-11-27T21:11:42.304Z,17.63
2022-11-27T21:14:12.077Z,25.90
2022-11-27T21:16:43.081Z,20.05
2022-11-27T21:19:15.289Z,21.75
2022-11-27T21:21:43.371Z,24.85
2022-11-27T21:24:12.904Z,22.38
2022-11-27T21:26:41.544Z,25.45
2022-11-27T21:29:10.602Z,20.80
2022-11-27T21:31:42.684Z,17.92
2022-11-27T21:34:16.788Z,22.27
2022-11-27T21:36:45.563Z,24.17
2022-11-27T21:39:20.002Z,20.35
2022-11-27T21:41:49.129Z,17.70
2022-11-27T21:44:18.010Z,20.88
2022-11-27T21:46:46.068Z,18.33
2022-11-27T21:49:16.592Z,19.55
2022-11-27T21:51:44.572Z,17.70
2022-11-27T21:54:15.840Z,16.40
2022-11-27T21:56:43.652Z,24.65
2022-11-27T21:59:15.007Z,21.85
2022-11-27T22:01:45.170Z,18.05
2022-11-27T22:04:13.351Z,22.52
2022-11-27T22:06:45.079Z,25.52
2022-11-27T22:09:15.652Z,23.40
2022-11-27T22:11:44.646Z,24.25
2022-11-27T22:14:12.998Z,24.38
2022-11-27T22:16:45.244Z,21.63
2022-11-27T22:19:15.366Z,20.77
2022-11-27T22:21:45.718Z,20.92
2022-11-27T22:24:18.956Z,22.45
2022-11-27T22:26:51.589Z,18.48
2022-11-27T22:29:19.506Z,19.50
2022-11-27T22:31:47.805Z,22.30
2022-11-27T22:34:17.280Z,30.40
2022-11-27T22:36:47.469Z,24.42
2022-11-27T22:39:15.448Z,23.25
2022-11-27T22:41:45.124Z,30.15
2022-11-27T22:44:16.882Z,26.33
2022-11-27T22:46:46.184Z,18.75
2022-11-27T22:49:19.560Z,23.80
2022-11-27T22:51:48.981Z,23.92
2022-11-27T22:54:17.871Z,22.38
2022-11-27T22:56:47.094Z,23.33
2022-11-27T22:59:33.768Z,22.35
2022-11-27T23:02:03.134Z,22.92
2022-11-27T23:04:31.190Z,22.17
2022-11-27T23:07:00.939Z,25.30
2022-11-27T23:09:30.007Z,22.90
2022-11-27T23:11:58.664Z,22.50
2022-11-27T23:14:27.695Z,25.50
2022-11-27T23:16:55.639Z,20.55
2022-11-27T23:19:23.633Z,22.55
2022-11-27T23:21:51.593Z,26.42
2022-11-27T23:24:20.940Z,23.83
2022-11-27T23:26:49.147Z,24.35
2022-11-27T23:29:17.037Z,23.20
2022-11-27T23:31:44.957Z,18.33
2022-11-27T23:34:16.016Z,24.92
2022-11-27T23:36:44.055Z,23.48
2022-11-27T23:39:14.555Z,24.75
2022-11-27T23:41:44.037Z,27.67
2022-11-27T23:44:12.137Z,24.17
2022-11-27T23:46:40.575Z,24.85
2022-11-27T23:49:08.680Z,19.40
2022-11-27T23:51:36.910Z,21.15
2022-11-27T23:54:08.768Z,20.65
2022-11-27T23:56:37.265Z,22.95
2022-11-27T23:59:06.847Z,19.48
